Time,TemperatureF,DewpointF,PressureIn,WindDirection,WindDirectionDegrees,WindSpeedMPH,WindSpeedGustMPH,Humidity,HourlyPrecipIn,Conditions,Clouds,dailyrainin,SoftwareType,DateUTC
2013-07-25 00:02:00,63.0,54.0,-100.00,East,90,3.0,6.0,72,-99.99,,,-99.99,,2013-07-25 08:02:00,
2013-07-25 00:12:00,63.0,54.0,-100.00,East,90,3.0,6.0,72,-99.99,,,-99.99,,2013-07-25 08:12:00,
2013-07-25 00:22:00,62.0,54.0,-100.00,East,90,4.0,7.0,75,-99.99,,,-99.99,,2013-07-25 08:22:00,
2013-07-25 00:32:00,62.0,54.0,-100.00,East,90,4.0,7.0,75,-99.99,,,-99.99,,2013-07-25 08:32:00,
2013-07-25 00:44:00,62.0,54.0,-100.00,East,90,4.0,7.0,75,-99.99,,,-99.99,,2013-07-25 08:44:00,
2013-07-25 01:02:00,62.0,54.0,-100.00,East,85,4.0,9.0,75,-99.99,,,-99.99,,2013-07-25 09:02:00,
2013-07-25 01:12:00,62.0,54.0,-100.00,East,85,4.0,9.0,75,-99.99,,,-99.99,,2013-07-25 09:12:00,
2013-07-25 01:22:00,61.0,54.0,-100.00,East,90,3.0,6.0,78,-99.99,,,-99.99,,2013-07-25 09:22:00,
2013-07-25 01:33:00,61.0,54.0,-100.00,East,90,3.0,6.0,78,-99.99,,,-99.99,,2013-07-25 09:33:00,
2013-07-25 01:43:00,61.0,54.0,-100.00,East,90,3.0,6.0,78,-99.99,,,-99.99,,2013-07-25 09:43:00,
2013-07-25 02:02:00,60.0,53.0,-100.00,East,85,3.0,6.0,80,-99.99,,,-99.99,,2013-07-25 10:02:00,
2013-07-25 02:12:00,60.0,53.0,-100.00,East,85,3.0,6.0,80,-99.99,,,-99.99,,2013-07-25 10:12:00,
2013-07-25 02:22:00,60.0,53.0,-100.00,East,85,3.0,6.0,80,-99.99,,,-99.99,,2013-07-25 10:22:00,
2013-07-25 02:32:00,57.0,53.0,-100.00,East,95,3.0,4.0,86,-99.99,,,-99.99,,2013-07-25 10:32:00,
2013-07-25 02:42:00,57.0,53.0,-100.00,East,95,3.0,4.0,86,-99.99,,,-99.99,,2013-07-25 10:42:00,
2013-07-25 03:02:00,55.0,52.0,-100.00,East,95,4.0,4.0,90,-99.99,,,-99.99,,2013-07-25 11:02:00,
2013-07-25 03:12:00,55.0,52.0,-100.00,East,95,4.0,4.0,90,-99.99,,,-99.99,,2013-07-25 11:12:00,
2013-07-25 03:22:00,54.0,52.0,-100.00,East,90,3.0,4.0,92,-99.99,,,-99.99,,2013-07-25 11:22:00,
2013-07-25 03:32:00,54.0,52.0,-100.00,East,90,3.0,4.0,92,-99.99,,,-99.99,,2013-07-25 11:32:00,
2013-07-25 03:43:00,54.0,52.0,-100.00,East,90,3.0,4.0,92,-99.99,,,-99.99,,2013-07-25 11:43:00,
2013-07-25 04:02:00,53.0,51.0,-100.00,East,100,4.0,5.0,93,-99.99,,,-99.99,,2013-07-25 12:02:00,
2013-07-25 04:12:00,53.0,51.0,-100.00,East,100,4.0,5.0,93,-99.99,,,-99.99,,2013-07-25 12:12:00,
2013-07-25 04:32:00,53.0,51.0,-100.00,ESE,105,4.0,6.0,94,-99.99,,,-99.99,,2013-07-25 12:32:00,
2013-07-25 04:45:00,53.0,51.0,-100.00,ESE,105,4.0,6.0,94,-99.99,,,-99.99,,2013-07-25 12:45:00,
2013-07-25 05:02:00,53.0,51.0,-100.00,East,95,3.0,4.0,95,-99.99,,,-99.99,,2013-07-25 13:02:00,
2013-07-25 05:12:00,53.0,51.0,-100.00,East,95,3.0,4.0,95,-99.99,,,-99.99,,2013-07-25 13:12:00,
2013-07-25 05:32:00,55.0,54.0,-100.00,East,95,2.0,4.0,95,-99.99,,,-99.99,,2013-07-25 13:32:00,
2013-07-25 05:43:00,55.0,54.0,-100.00,East,95,2.0,4.0,95,-99.99,,,-99.99,,2013-07-25 13:43:00,
2013-07-25 05:53:00,55.0,54.0,-100.00,East,95,2.0,4.0,95,-99.99,,,-99.99,,2013-07-25 13:53:00,
2013-07-25 06:02:00,57.0,55.0,-100.00,East,90,2.0,4.0,94,-99.99,,,-99.99,,2013-07-25 14:02:00,
2013-07-25 06:12:00,57.0,55.0,-100.00,East,90,2.0,4.0,94,-99.99,,,-99.99,,2013-07-25 14:12:00,
2013-07-25 06:22:00,59.0,56.0,-100.00,East,90,2.0,4.0,91,-99.99,,,-99.99,,2013-07-25 14:22:00,
2013-07-25 06:33:00,59.0,56.0,-100.00,East,90,2.0,4.0,91,-99.99,,,-99.99,,2013-07-25 14:33:00,
2013-07-25 06:43:00,59.0,56.0,-100.00,East,90,2.0,4.0,91,-99.99,,,-99.99,,2013-07-25 14:43:00,
2013-07-25 06:53:00,60.0,56.0,-100.00,ENE,75,1.0,4.0,89,-99.99,,,-99.99,,2013-07-25 14:53:00,
2013-07-25 07:02:00,60.0,56.0,-100.00,ENE,75,1.0,4.0,89,-99.99,,,-99.99,,2013-07-25 15:02:00,
2013-07-25 07:12:00,60.0,56.0,-100.00,ENE,75,1.0,4.0,89,-99.99,,,-99.99,,2013-07-25 15:12:00,
2013-07-25 07:22:00,60.0,56.0,-100.00,ENE,75,1.0,4.0,89,-99.99,,,-99.99,,2013-07-25 15:22:00,
2013-07-25 07:32:00,61.0,56.0,-100.00,East,90,2.0,4.0,86,-99.99,,,-99.99,,2013-07-25 15:32:00,
2013-07-25 07:44:00,61.0,56.0,-100.00,East,90,2.0,4.0,86,-99.99,,,-99.99,,2013-07-25 15:44:00,
2013-07-25 08:01:00,62.0,56.0,-100.00,East,95,0.0,3.0,82,-99.99,,,-99.99,,2013-07-25 16:01:00,
2013-07-25 08:12:00,62.0,56.0,-100.00,East,95,0.0,3.0,82,-99.99,,,-99.99,,2013-07-25 16:12:00,
2013-07-25 08:22:00,63.0,56.0,-100.00,NE,35,1.0,4.0,78,-99.99,,,-99.99,,2013-07-25 16:22:00,
2013-07-25 08:32:00,63.0,56.0,-100.00,NE,35,1.0,4.0,78,-99.99,,,-99.99,,2013-07-25 16:32:00,
2013-07-25 08:45:00,63.0,56.0,-100.00,NE,35,1.0,4.0,78,-99.99,,,-99.99,,2013-07-25 16:45:00,
2013-07-25 08:53:00,63.0,56.0,-100.00,ENE,75,1.0,6.0,77,-99.99,,,-99.99,,2013-07-25 16:53:00,
2013-07-25 09:02:00,63.0,56.0,-100.00,ENE,75,1.0,6.0,77,-99.99,,,-99.99,,2013-07-25 17:02:00,
2013-07-25 09:12:00,63.0,56.0,-100.00,ENE,75,1.0,6.0,77,-99.99,,,-99.99,,2013-07-25 17:12:00,
2013-07-25 09:22:00,63.0,56.0,-100.00,ENE,75,1.0,6.0,77,-99.99,,,-99.99,,2013-07-25 17:22:00,
2013-07-25 09:43:00,63.0,56.0,-100.00,WSW,245,1.0,4.0,77,-99.99,,,-99.99,,2013-07-25 17:43:00,
2013-07-25 10:02:00,62.0,56.0,-100.00,WNW,295,2.0,3.0,79,-99.99,,,-99.99,,2013-07-25 18:02:00,
2013-07-25 10:12:00,62.0,56.0,-100.00,WNW,295,2.0,3.0,79,-99.99,,,-99.99,,2013-07-25 18:12:00,
2013-07-25 11:02:00,63.0,56.0,-100.00,West,265,1.0,7.0,76,-99.99,,,-99.99,,2013-07-25 19:02:00,
2013-07-25 11:12:00,63.0,56.0,-100.00,West,265,1.0,7.0,76,-99.99,,,-99.99,,2013-07-25 19:12:00,
2013-07-25 11:22:00,63.0,56.0,-100.00,West,265,1.0,7.0,76,-99.99,,,-99.99,,2013-07-25 19:22:00,
2013-07-25 11:42:00,64.0,56.0,-100.00,WSW,255,3.0,7.0,75,-99.99,,,-99.99,,2013-07-25 19:42:00,
2013-07-25 12:02:00,67.0,56.0,-100.00,WNW,295,2.0,9.0,68,-99.99,,,-99.99,,2013-07-25 20:02:00,
2013-07-25 12:11:00,67.0,56.0,-100.00,WNW,295,2.0,9.0,68,-99.99,,,-99.99,,2013-07-25 20:11:00,
2013-07-25 12:22:00,66.0,55.0,-100.00,West,265,4.0,11.0,67,-99.99,,,-99.99,,2013-07-25 20:22:00,
2013-07-25 12:32:00,66.0,55.0,-100.00,West,265,4.0,11.0,67,-99.99,,,-99.99,,2013-07-25 20:32:00,
2013-07-25 12:43:00,66.0,55.0,-100.00,West,265,4.0,11.0,67,-99.99,,,-99.99,,2013-07-25 20:43:00,
2013-07-25 13:12:00,65.0,55.0,-100.00,West,260,6.0,12.0,70,-99.99,,,-99.99,,2013-07-25 21:12:00,
2013-07-25 13:32:00,67.0,56.0,-100.00,West,275,4.0,12.0,68,-99.99,,,-99.99,,2013-07-25 21:32:00,
2013-07-25 13:44:00,67.0,56.0,-100.00,West,275,4.0,12.0,68,-99.99,,,-99.99,,2013-07-25 21:44:00,
2013-07-25 14:02:00,67.0,56.0,-100.00,WSW,255,4.0,11.0,67,-99.99,,,-99.99,,2013-07-25 22:02:00,
2013-07-25 14:12:00,67.0,56.0,-100.00,WSW,255,4.0,11.0,67,-99.99,,,-99.99,,2013-07-25 22:12:00,
2013-07-25 14:22:00,68.0,55.0,-100.00,West,265,4.0,12.0,65,-99.99,,,-99.99,,2013-07-25 22:22:00,
2013-07-25 14:32:00,68.0,55.0,-100.00,West,265,4.0,12.0,65,-99.99,,,-99.99,,2013-07-25 22:32:00,
2013-07-25 14:43:00,68.0,55.0,-100.00,West,265,4.0,12.0,65,-99.99,,,-99.99,,2013-07-25 22:43:00,
2013-07-25 15:02:00,66.0,55.0,-100.00,West,265,6.0,16.0,68,-99.99,,,-99.99,,2013-07-25 23:02:00,
2013-07-25 15:12:00,66.0,55.0,-100.00,West,265,6.0,16.0,68,-99.99,,,-99.99,,2013-07-25 23:12:00,
2013-07-25 15:22:00,67.0,55.0,-100.00,West,270,7.0,14.0,67,-99.99,,,-99.99,,2013-07-25 23:22:00,
2013-07-25 15:32:00,67.0,55.0,-100.00,West,270,7.0,14.0,67,-99.99,,,-99.99,,2013-07-25 23:32:00,
2013-07-25 15:43:00,67.0,55.0,-100.00,West,270,7.0,14.0,67,-99.99,,,-99.99,,2013-07-25 23:43:00,
2013-07-25 16:01:00,68.0,55.0,-100.00,WNW,295,4.0,13.0,64,-99.99,,,-99.99,,2013-07-26 00:01:00,
2013-07-25 16:12:00,68.0,55.0,-100.00,WNW,295,4.0,13.0,64,-99.99,,,-99.99,,2013-07-26 00:12:00,
2013-07-25 16:32:00,69.0,56.0,-100.00,West,280,3.0,14.0,63,-99.99,,,-99.99,,2013-07-26 00:32:00,
2013-07-25 16:43:00,69.0,56.0,-100.00,West,280,3.0,14.0,63,-99.99,,,-99.99,,2013-07-26 00:43:00,
2013-07-25 17:02:00,69.0,56.0,-100.00,WNW,300,3.0,9.0,63,-99.99,,,-99.99,,2013-07-26 01:02:00,
2013-07-25 17:12:00,69.0,56.0,-100.00,WNW,300,3.0,9.0,63,-99.99,,,-99.99,,2013-07-26 01:12:00,
2013-07-25 17:32:00,69.0,56.0,-100.00,SW,230,3.0,14.0,63,-99.99,,,-99.99,,2013-07-26 01:32:00,
2013-07-25 17:43:00,69.0,56.0,-100.00,SW,230,3.0,14.0,63,-99.99,,,-99.99,,2013-07-26 01:43:00,
2013-07-25 18:02:00,69.0,56.0,-100.00,West,260,4.0,11.0,63,-99.99,,,-99.99,,2013-07-26 02:02:00,
2013-07-25 18:12:00,69.0,56.0,-100.00,West,260,4.0,11.0,63,-99.99,,,-99.99,,2013-07-26 02:12:00,
2013-07-25 18:22:00,69.0,56.0,-100.00,West,260,4.0,11.0,63,-99.99,,,-99.99,,2013-07-26 02:22:00,
2013-07-25 18:43:00,69.0,56.0,-100.00,WSW,240,2.0,10.0,63,-99.99,,,-99.99,,2013-07-26 02:43:00,
2013-07-25 18:52:00,70.0,56.0,-100.00,WSW,245,2.0,11.0,61,-99.99,,,-99.99,,2013-07-26 02:52:00,
2013-07-25 19:02:00,70.0,56.0,-100.00,WSW,245,2.0,11.0,61,-99.99,,,-99.99,,2013-07-26 03:02:00,
2013-07-25 19:12:00,70.0,56.0,-100.00,WSW,245,2.0,11.0,61,-99.99,,,-99.99,,2013-07-26 03:12:00,
2013-07-25 19:22:00,70.0,56.0,-100.00,WSW,245,2.0,11.0,61,-99.99,,,-99.99,,2013-07-26 03:22:00,
2013-07-25 19:33:00,69.0,55.0,-100.00,WNW,295,3.0,10.0,62,-99.99,,,-99.99,,2013-07-26 03:33:00,
2013-07-25 19:44:00,69.0,55.0,-100.00,WNW,295,3.0,10.0,62,-99.99,,,-99.99,,2013-07-26 03:44:00,
2013-07-25 20:02:00,69.0,55.0,-100.00,West,275,2.0,13.0,62,-99.99,,,-99.99,,2013-07-26 04:02:00,
2013-07-25 20:12:00,69.0,55.0,-100.00,West,275,2.0,13.0,62,-99.99,,,-99.99,,2013-07-26 04:12:00,
2013-07-25 20:22:00,70.0,55.0,-100.00,SW,225,4.0,12.0,60,-99.99,,,-99.99,,2013-07-26 04:22:00,
2013-07-25 20:32:00,70.0,55.0,-100.00,SW,225,4.0,12.0,60,-99.99,,,-99.99,,2013-07-26 04:32:00,
2013-07-25 20:43:00,70.0,55.0,-100.00,SW,225,4.0,12.0,60,-99.99,,,-99.99,,2013-07-26 04:43:00,
2013-07-25 20:53:00,69.0,56.0,-100.00,ENE,70,1.0,8.0,63,-99.99,,,-99.99,,2013-07-26 04:53:00,
2013-07-25 21:02:00,69.0,56.0,-100.00,ENE,70,1.0,8.0,63,-99.99,,,-99.99,,2013-07-26 05:02:00,
2013-07-25 21:12:00,69.0,56.0,-100.00,ENE,70,1.0,8.0,63,-99.99,,,-99.99,,2013-07-26 05:12:00,
2013-07-25 21:22:00,69.0,56.0,-100.00,ENE,70,1.0,8.0,63,-99.99,,,-99.99,,2013-07-26 05:22:00,
2013-07-25 21:32:00,69.0,57.0,-100.00,WSW,240,2.0,9.0,64,-99.99,,,-99.99,,2013-07-26 05:32:00,
2013-07-25 21:43:00,69.0,57.0,-100.00,WSW,240,2.0,9.0,64,-99.99,,,-99.99,,2013-07-26 05:43:00,
2013-07-25 22:02:00,65.0,55.0,-100.00,NW,310,1.0,4.0,70,-99.99,,,-99.99,,2013-07-26 06:02:00,
2013-07-25 22:12:00,65.0,55.0,-100.00,NW,310,1.0,4.0,70,-99.99,,,-99.99,,2013-07-26 06:12:00,
2013-07-25 22:22:00,65.0,55.0,-100.00,NW,310,1.0,4.0,70,-99.99,,,-99.99,,2013-07-26 06:22:00,
2013-07-25 22:33:00,65.0,55.0,-100.00,West,270,1.0,4.0,72,-99.99,,,-99.99,,2013-07-26 06:33:00,
2013-07-25 22:43:00,65.0,55.0,-100.00,West,270,1.0,4.0,72,-99.99,,,-99.99,,2013-07-26 06:43:00,
2013-07-25 23:02:00,62.0,53.0,-100.00,WNW,300,2.0,4.0,74,-99.99,,,-99.99,,2013-07-26 07:02:00,
2013-07-25 23:12:00,62.0,53.0,-100.00,WNW,300,2.0,4.0,74,-99.99,,,-99.99,,2013-07-26 07:12:00,
2013-07-25 23:22:00,62.0,53.0,-100.00,WNW,300,2.0,4.0,74,-99.99,,,-99.99,,2013-07-26 07:22:00,
2013-07-25 23:32:00,57.0,51.0,-100.00,NW,310,2.0,5.0,81,-99.99,,,-99.99,,2013-07-26 07:32:00,
2013-07-25 23:43:00,57.0,51.0,-100.00,NW,310,2.0,5.0,81,-99.99,,,-99.99,,2013-07-26 07:43:00,